Time;durP1;ratioP1;P1;durP2;ratioP2;P2;SDS_P1;SDS_P2;PMS_P1;PMS_P2;Temp;Humidity;BMP_temperature;BMP_pressure;BME280_temperature;BME280_humidity;BME280_pressure;Samples;Min_cycle;Max_cycle;Signal;HPM_P1;HPM_P2
2022/06/30 00:01:47;;;;;;;4.05;1.00;;;19.00;99.90;;;;;;5073858;28;20071;-69
2022/06/30 00:04:13;;;;;;;3.72;1.00;;;19.10;99.90;;;;;;5073992;28;20040;-69
2022/06/30 00:06:39;;;;;;;3.55;1.08;;;19.00;99.90;;;;;;5074102;28;20045;-69
2022/06/30 00:09:05;;;;;;;2.97;1.08;;;18.70;99.90;;;;;;5073775;28;20036;-69
2022/06/30 00:11:31;;;;;;;6.60;1.25;;;18.60;99.90;;;;;;5073849;28;20051;-69
2022/06/30 00:13:58;;;;;;;4.70;1.13;;;18.50;99.90;;;;;;5073852;28;20032;-69
2022/06/30 00:16:24;;;;;;;3.72;1.52;;;18.40;99.90;;;;;;5055802;28;20455;-69
2022/06/30 00:18:49;;;;;;;4.10;1.33;;;18.20;99.90;;;;;;5072359;28;20372;-70
2022/06/30 00:21:15;;;;;;;2.92;1.20;;;18.20;99.90;;;;;;5073610;28;20051;-69
2022/06/30 00:23:41;;;;;;;8.55;1.30;;;18.20;99.90;;;;;;5072303;28;20418;-69
2022/06/30 00:26:07;;;;;;;1.95;1.10;;;18.20;99.90;;;;;;5073265;28;20045;-70
2022/06/30 00:28:33;;;;;;;8.38;1.58;;;18.30;99.90;;;;;;5073739;28;20040;-69
2022/06/30 00:30:59;;;;;;;6.13;1.27;;;18.30;99.90;;;;;;5073684;28;20407;-69
2022/06/30 00:33:25;;;;;;;6.20;1.00;;;18.20;99.90;;;;;;5073472;28;20094;-69
2022/06/30 00:35:51;;;;;;;5.40;1.20;;;18.20;99.90;;;;;;5073129;28;20054;-70
2022/06/30 00:38:17;;;;;;;2.92;1.08;;;18.20;99.90;;;;;;5067341;28;20561;-69
2022/06/30 00:40:45;;;;;;;2.72;1.30;;;18.20;99.90;;;;;;5053356;28;20040;-69
2022/06/30 00:43:12;;;;;;;1.98;1.02;;;18.10;99.90;;;;;;5053419;28;20577;-69
2022/06/30 00:45:46;;;;;;;2.05;1.00;;;18.20;99.90;;;;;;5053774;28;20033;-69
2022/06/30 00:48:13;;;;;;;4.20;1.25;;;18.10;99.90;;;;;;5052200;28;20091;-69
2022/06/30 00:50:40;;;;;;;5.80;1.45;;;18.10;99.90;;;;;;5053557;28;20052;-69
2022/06/30 00:53:08;;;;;;;2.92;1.25;;;18.30;99.90;;;;;;5053403;28;20052;-69
2022/06/30 00:55:35;;;;;;;2.00;0.90;;;18.40;99.90;;;;;;5053141;28;20053;-69
2022/06/30 00:58:06;;;;;;;2.88;0.98;;;18.50;99.90;;;;;;5052228;28;20530;-69
2022/06/30 01:00:40;;;;;;;2.35;1.17;;;18.60;99.90;;;;;;5053180;28;20049;-69
2022/06/30 01:03:08;;;;;;;3.97;1.10;;;18.70;99.90;;;;;;5053055;28;20037;-70
2022/06/30 01:05:35;;;;;;;3.17;1.00;;;18.80;99.90;;;;;;5051189;28;20045;-69
2022/06/30 01:08:02;;;;;;;3.30;1.40;;;18.80;99.90;;;;;;5053000;28;20044;-69
2022/06/30 01:13:13;;;;;;;1.60;1.10;;;18.60;99.90;;;;;;5052782;28;20040;-69
2022/06/30 01:15:39;;;;;;;4.85;1.00;;;18.20;99.90;;;;;;5052776;28;20040;-69
2022/06/30 01:18:04;;;;;;;3.47;0.88;;;18.20;99.90;;;;;;5052780;28;20048;-69
2022/06/30 01:20:33;;;;;;;4.75;1.10;;;18.30;99.90;;;;;;5059698;28;20596;-69
2022/06/30 01:23:01;;;;;;;2.33;1.17;;;18.30;99.90;;;;;;5073168;28;20149;-69
2022/06/30 01:25:27;;;;;;;3.10;1.20;;;18.20;99.90;;;;;;5063231;28;20053;-69
2022/06/30 01:27:54;;;;;;;3.00;1.27;;;18.40;99.90;;;;;;5070644;28;20511;-69
2022/06/30 01:30:21;;;;;;;1.98;1.13;;;18.40;99.90;;;;;;5070327;28;20066;-70
2022/06/30 01:32:49;;;;;;;4.00;1.02;;;18.50;99.90;;;;;;5069797;28;20043;-70
2022/06/30 01:35:15;;;;;;;4.88;1.05;;;18.40;99.90;;;;;;5072695;28;20076;-70
2022/06/30 01:37:46;;;;;;;4.40;1.38;;;18.30;99.90;;;;;;5072571;28;20071;-70
2022/06/30 01:40:11;;;;;;;2.75;1.23;;;18.10;99.90;;;;;;5072158;28;20048;-71
2022/06/30 01:42:37;;;;;;;4.50;1.85;;;18.00;99.90;;;;;;5072397;28;20128;-76
2022/06/30 01:45:04;;;;;;;1.92;1.00;;;17.90;99.90;;;;;;5072412;28;20545;-70
2022/06/30 01:47:30;;;;;;;2.38;1.17;;;17.70;99.90;;;;;;5072491;28;20036;-70
2022/06/30 01:49:55;;;;;;;3.15;1.00;;;17.70;99.90;;;;;;5072513;28;20037;-71
2022/06/30 01:52:21;;;;;;;3.78;1.08;;;17.80;99.90;;;;;;5072321;28;20043;-70
2022/06/30 01:54:47;;;;;;;3.75;1.30;;;17.90;99.90;;;;;;5072513;28;20052;-70
2022/06/30 01:57:13;;;;;;;3.50;1.30;;;18.00;99.90;;;;;;5071197;28;20036;-71
2022/06/30 01:59:38;;;;;;;6.43;1.45;;;18.00;99.90;;;;;;5072483;28;20123;-70
2022/06/30 02:02:04;;;;;;;3.15;1.00;;;17.90;99.90;;;;;;5072607;28;20056;-69
2022/06/30 02:04:50;;;;;;;4.05;1.42;;;18.10;99.90;;;;;;5072211;28;20043;-70
2022/06/30 02:07:20;;;;;;;3.10;1.00;;;18.00;99.90;;;;;;5072220;28;20044;-69
2022/06/30 02:09:46;;;;;;;3.72;1.25;;;18.10;99.90;;;;;;5072068;28;20037;-70
2022/06/30 02:14:57;;;;;;;3.60;1.30;;;18.10;99.90;;;;;;5070039;28;20079;-69
2022/06/30 02:17:23;;;;;;;3.72;1.30;;;18.30;99.90;;;;;;5073871;28;20047;-69
2022/06/30 02:19:49;;;;;;;4.00;1.05;;;18.40;99.90;;;;;;5075976;28;20028;-70
2022/06/30 02:22:15;;;;;;;2.45;1.27;;;18.40;99.90;;;;;;5075948;28;20411;-71
2022/06/30 02:24:41;;;;;;;2.65;1.30;;;18.50;99.90;;;;;;5075797;28;20028;-70
2022/06/30 02:27:08;;;;;;;5.95;1.13;;;18.40;99.90;;;;;;5075763;28;20447;-70
2022/06/30 02:29:33;;;;;;;3.47;1.40;;;18.40;99.90;;;;;;5075766;28;20123;-71
2022/06/30 02:31:59;;;;;;;4.20;1.27;;;18.20;99.90;;;;;;5075742;28;20127;-69
2022/06/30 02:34:25;;;;;;;2.67;1.30;;;18.10;99.90;;;;;;5075641;28;20083;-69
2022/06/30 02:36:51;;;;;;;3.92;1.20;;;18.00;99.90;;;;;;5075603;28;20047;-70
2022/06/30 02:39:16;;;;;;;1.73;1.00;;;17.80;99.90;;;;;;5075432;28;20036;-70
2022/06/30 02:41:42;;;;;;;4.22;1.55;;;17.60;99.90;;;;;;5075306;28;20062;-75
2022/06/30 02:44:08;;;;;;;4.25;1.17;;;17.30;99.90;;;;;;5075459;28;20036;-70
2022/06/30 02:46:34;;;;;;;3.08;1.00;;;17.20;99.90;;;;;;5073107;28;20576;-70
2022/06/30 02:48:59;;;;;;;1.77;0.90;;;17.10;99.90;;;;;;5074495;28;20056;-70
2022/06/30 02:51:25;;;;;;;3.55;1.08;;;17.10;99.90;;;;;;5075322;28;20040;-69
2022/06/30 02:53:51;;;;;;;4.13;1.27;;;17.30;99.90;;;;;;5075303;28;20037;-69
2022/06/30 02:56:17;;;;;;;5.53;1.25;;;17.50;99.90;;;;;;5075263;28;20098;-70
2022/06/30 02:58:43;;;;;;;4.53;1.20;;;17.60;99.90;;;;;;5075181;28;20131;-70
2022/06/30 03:01:08;;;;;;;1.65;0.90;;;17.40;99.90;;;;;;5075400;28;20040;-70
2022/06/30 03:03:34;;;;;;;9.00;1.38;;;17.50;99.90;;;;;;5075100;28;20487;-70
2022/06/30 03:06:00;;;;;;;2.25;1.30;;;17.50;99.90;;;;;;5075128;28;20047;-70
2022/06/30 03:08:26;;;;;;;4.53;1.30;;;17.60;99.90;;;;;;5075046;28;20059;-74
2022/06/30 03:10:51;;;;;;;7.25;1.75;;;17.40;99.90;;;;;;5075039;28;20123;-70
2022/06/30 03:13:17;;;;;;;3.67;1.38;;;17.30;99.90;;;;;;5074975;28;20051;-69
2022/06/30 03:15:43;;;;;;;3.13;1.40;;;17.10;99.90;;;;;;5074781;28;20044;-69
2022/06/30 03:18:09;;;;;;;4.15;1.67;;;17.20;99.90;;;;;;5074875;28;20032;-75
2022/06/30 03:20:34;;;;;;;4.90;1.52;;;17.30;99.90;;;;;;5072942;28;20044;-70
2022/06/30 03:23:00;;;;;;;2.85;1.20;;;17.40;99.90;;;;;;5074525;28;20067;-69
2022/06/30 03:25:26;;;;;;;3.47;1.30;;;17.40;99.90;;;;;;5074192;28;20075;-70
2022/06/30 03:27:51;;;;;;;2.30;1.20;;;17.50;99.90;;;;;;5073784;28;20095;-72
2022/06/30 03:30:17;;;;;;;7.25;1.67;;;17.40;99.90;;;;;;5073836;28;20047;-70
2022/06/30 03:32:43;;;;;;;10.25;1.67;;;17.40;99.90;;;;;;5074167;28;20044;-78
2022/06/30 03:35:09;;;;;;;3.78;1.27;;;17.10;99.90;;;;;;5074007;28;20095;-72
2022/06/30 03:37:35;;;;;;;8.55;1.55;;;16.80;99.90;;;;;;5074179;28;20037;-70
2022/06/30 03:40:01;;;;;;;6.20;1.33;;;16.80;99.90;;;;;;5074470;28;20044;-69
2022/06/30 03:42:27;;;;;;;6.80;1.23;;;16.80;99.90;;;;;;5074473;28;20044;-70
2022/06/30 03:44:53;;;;;;;4.65;1.50;;;16.70;99.90;;;;;;5074318;28;20052;-72
2022/06/30 03:47:19;;;;;;;5.78;1.13;;;;;;;;;;5074278;28;20086;-70
2022/06/30 03:49:44;;;;;;;4.55;1.35;;;16.30;99.90;;;;;;5073995;28;20076;-70
2022/06/30 03:52:10;;;;;;;2.17;1.30;;;16.10;99.90;;;;;;5074011;28;20113;-70
2022/06/30 03:54:36;;;;;;;2.65;1.33;;;16.10;99.90;;;;;;5074192;28;20102;-70
2022/06/30 03:57:02;;;;;;;5.15;1.52;;;16.20;99.90;;;;;;5074171;28;20553;-73
2022/06/30 03:59:27;;;;;;;4.50;1.52;;;16.30;99.90;;;;;;5073785;28;20074;-69
2022/06/30 04:01:53;;;;;;;2.35;1.50;;;16.40;99.90;;;;;;5073769;28;20097;-71
2022/06/30 04:04:19;;;;;;;3.22;1.70;;;16.70;99.90;;;;;;5072549;28;20047;-71
2022/06/30 04:06:45;;;;;;;4.25;1.20;;;16.90;99.90;;;;;;5073939;28;20046;-70
2022/06/30 04:09:10;;;;;;;4.05;1.42;;;17.10;99.90;;;;;;5073039;28;20049;-70
2022/06/30 04:11:36;;;;;;;5.65;1.40;;;17.00;99.90;;;;;;5073565;28;20039;-70
2022/06/30 04:14:02;;;;;;;4.10;1.50;;;17.10;99.90;;;;;;5073591;28;20036;-70
2022/06/30 04:16:28;;;;;;;9.40;1.88;;;17.10;99.90;;;;;;5073678;28;20047;-70
2022/06/30 04:18:54;;;;;;;5.95;1.63;;;17.00;99.90;;;;;;5073769;28;20044;-70
2022/06/30 04:21:20;;;;;;;8.38;1.50;;;17.00;99.90;;;;;;5073656;28;20550;-70
2022/06/30 04:23:46;;;;;;;4.53;1.60;;;17.00;99.90;;;;;;5073362;28;20518;-70
2022/06/30 04:26:12;;;;;;;3.85;1.10;;;17.10;99.90;;;;;;5073072;28;20110;-70
2022/06/30 04:28:38;;;;;;;6.10;1.63;;;17.10;99.90;;;;;;5072924;28;20048;-69
2022/06/30 04:33:48;;;;;;;2.53;1.48;;;17.10;99.90;;;;;;5073354;28;20036;-69
2022/06/30 04:36:14;;;;;;;4.95;1.42;;;17.20;99.90;;;;;;5073374;28;20427;-70
2022/06/30 04:38:40;;;;;;;2.08;1.15;;;17.20;99.90;;;;;;5072631;28;20486;-69
2022/06/30 04:41:40;;;;;;;1.85;1.30;;;17.20;99.90;;;;;;5069013;28;20098;-70
2022/06/30 04:44:00;;;;;;;6.03;1.98;;;17.30;99.90;;;;;;5072106;28;20412;-69
2022/06/30 04:46:26;;;;;;;4.40;1.35;;;17.20;99.90;;;;;;5073342;28;20449;-69
2022/06/30 04:48:53;;;;;;;5.22;1.42;;;17.30;99.90;;;;;;5073024;28;20036;-69
2022/06/30 04:51:19;;;;;;;6.90;1.88;;;17.20;99.90;;;;;;5073382;28;20082;-69
2022/06/30 04:53:46;;;;;;;5.10;1.52;;;17.20;99.90;;;;;;5073239;28;20458;-69
2022/06/30 04:56:12;;;;;;;4.20;1.50;;;17.20;99.90;;;;;;5073245;28;20052;-70
2022/06/30 04:58:39;;;;;;;9.98;3.42;;;17.40;99.90;;;;;;5055637;28;20395;-71
2022/06/30 05:01:06;;;;;;;4.85;1.30;;;17.60;99.90;;;;;;5072278;28;20040;-71
2022/06/30 05:03:33;;;;;;;4.28;1.58;;;17.60;99.90;;;;;;5073078;28;20036;-70
2022/06/30 05:06:00;;;;;;;5.95;1.63;;;17.60;99.90;;;;;;5072661;28;20446;-70
2022/06/30 05:08:28;;;;;;;6.80;2.80;;;17.80;99.90;;;;;;5055089;28;20040;-71
2022/06/30 05:10:55;;;;;;;7.20;1.40;;;17.60;99.90;;;;;;5072621;28;20037;-71
2022/06/30 05:13:22;;;;;;;3.92;1.25;;;17.30;99.90;;;;;;5073060;28;20044;-70
2022/06/30 05:15:47;;;;;;;4.22;1.38;;;17.40;99.90;;;;;;5072884;28;20097;-70
2022/06/30 05:18:14;;;;;;;4.07;1.25;;;17.50;99.90;;;;;;5072878;28;20042;-71
2022/06/30 05:20:40;;;;;;;6.70;1.70;;;17.40;99.90;;;;;;5071307;28;20081;-70
2022/06/30 05:23:07;;;;;;;10.98;2.08;;;17.50;99.90;;;;;;5071484;28;20059;-70
2022/06/30 05:28:17;;;;;;;4.20;1.23;;;17.70;99.90;;;;;;5072428;28;20043;-70
2022/06/30 05:30:44;;;;;;;4.43;1.30;;;17.70;99.90;;;;;;5067325;28;20052;-70
2022/06/30 05:33:10;;;;;;;6.80;1.45;;;17.80;99.90;;;;;;5067125;28;20032;-70
2022/06/30 05:35:35;;;;;;;6.82;1.42;;;17.70;99.90;;;;;;5061828;28;20059;-71
2022/06/30 05:38:02;;;;;;;8.23;2.00;;;17.80;99.90;;;;;;5071610;28;20045;-70
2022/06/30 05:40:29;;;;;;;6.25;1.80;;;17.80;99.90;;;;;;5072804;28;20044;-70
2022/06/30 05:42:55;;;;;;;5.43;1.80;;;17.80;99.90;;;;;;5073157;28;20033;-70
2022/06/30 05:45:22;;;;;;;4.63;1.58;;;18.30;99.90;;;;;;5072740;28;20110;-70
2022/06/30 05:47:50;;;;;;;7.85;1.85;;;18.20;99.90;;;;;;5071288;28;20040;-71
2022/06/30 05:50:19;;;;;;;3.40;1.40;;;18.00;99.90;;;;;;5072784;28;20499;-70
2022/06/30 05:52:46;;;;;;;8.73;1.58;;;17.80;99.90;;;;;;5074166;28;20040;-70
2022/06/30 05:55:12;;;;;;;5.15;1.45;;;17.80;99.90;;;;;;5076743;28;20060;-70
2022/06/30 05:57:52;;;;;;;6.40;1.38;;;18.00;99.90;;;;;;5075314;28;20082;-70
2022/06/30 06:00:22;;;;;;;4.05;1.20;;;17.90;99.90;;;;;;5075294;28;20040;-70
2022/06/30 06:02:48;;;;;;;;;;;17.80;99.90;;;;;;5076719;28;20119;-70
2022/06/30 06:05:14;;;;;;;2.50;1.13;;;17.60;99.90;;;;;;5074670;28;20363;-70
2022/06/30 06:07:40;;;;;;;2.13;1.10;;;17.60;99.90;;;;;;5075984;28;20391;-70
2022/06/30 06:10:07;;;;;;;4.05;1.10;;;17.60;99.90;;;;;;5075894;28;20115;-71
2022/06/30 06:12:34;;;;;;;3.88;1.38;;;17.70;99.90;;;;;;5075757;28;20059;-70
2022/06/30 06:14:59;;;;;;;7.18;1.33;;;17.80;99.90;;;;;;5054922;28;20503;-70
2022/06/30 06:17:25;;;;;;;5.65;1.85;;;17.80;99.90;;;;;;5073595;28;20124;-70
2022/06/30 06:19:51;;;;;;;2.65;1.25;;;17.90;99.90;;;;;;5074836;28;20517;-71
2022/06/30 06:22:18;;;;;;;8.68;1.73;;;17.80;99.90;;;;;;5075632;28;20093;-70
2022/06/30 06:24:44;;;;;;;4.50;1.55;;;17.90;99.90;;;;;;5075860;28;20150;-70
2022/06/30 06:27:10;;;;;;;4.95;1.17;;;17.90;99.90;;;;;;5075152;28;20156;-71
2022/06/30 06:29:36;;;;;;;3.65;1.33;;;18.00;99.90;;;;;;5074607;28;20491;-70
2022/06/30 06:32:02;;;;;;;3.30;1.58;;;18.10;99.90;;;;;;5075881;28;20138;-70
2022/06/30 06:34:28;;;;;;;5.97;1.38;;;18.10;99.90;;;;;;5072630;28;20424;-70
2022/06/30 06:36:55;;;;;;;3.33;1.58;;;18.00;99.90;;;;;;5075666;28;20464;-70
2022/06/30 06:39:21;;;;;;;5.05;2.10;;;17.90;99.90;;;;;;5075275;28;20119;-71
2022/06/30 06:41:47;;;;;;;4.80;1.15;;;17.80;99.90;;;;;;5075876;28;20060;-70
2022/06/30 06:44:13;;;;;;;4.18;1.60;;;17.80;99.90;;;;;;5075547;28;20044;-71
2022/06/30 06:46:39;;;;;;;3.45;1.10;;;18.00;99.90;;;;;;5075721;28;20086;-70
2022/06/30 06:49:07;;;;;;;9.82;1.58;;;18.30;99.90;;;;;;5075509;28;20067;-71
2022/06/30 06:51:34;;;;;;;6.47;1.90;;;18.60;99.90;;;;;;5075628;28;20431;-70
2022/06/30 06:54:00;;;;;;;5.30;1.35;;;18.60;99.90;;;;;;5075735;28;20036;-70
2022/06/30 06:56:28;;;;;;;5.32;1.30;;;18.90;99.90;;;;;;5075293;28;20048;-70
2022/06/30 06:58:54;;;;;;;6.65;1.33;;;19.10;99.90;;;;;;5075265;28;20058;-71
2022/06/30 07:01:20;;;;;;;8.25;1.67;;;19.40;99.90;;;;;;5073475;28;20044;-71
2022/06/30 07:03:46;;;;;;;5.15;1.40;;;19.80;99.90;;;;;;5072976;28;20048;-71
2022/06/30 07:06:12;;;;;;;3.78;1.67;;;20.20;99.90;;;;;;5074265;28;20063;-69
2022/06/30 07:08:38;;;;;;;5.20;1.55;;;20.30;99.90;;;;;;5075757;28;20043;-69
2022/06/30 07:11:05;;;;;;;4.25;1.33;;;20.10;99.90;;;;;;5075155;28;20021;-69
2022/06/30 07:13:32;;;;;;;5.45;1.90;;;20.10;99.90;;;;;;5076417;28;20048;-69
2022/06/30 07:15:58;;;;;;;5.30;1.40;;;20.00;99.90;;;;;;5075003;28;20060;-70
2022/06/30 07:18:24;;;;;;;7.22;1.33;;;20.50;99.90;;;;;;5074964;28;20403;-70
2022/06/30 07:20:50;;;;;;;6.68;1.50;;;20.30;99.90;;;;;;5075081;28;20078;-69
2022/06/30 07:23:16;;;;;;;3.42;1.35;;;20.50;99.90;;;;;;5073698;28;20028;-70
2022/06/30 07:25:42;;;;;;;4.10;1.38;;;20.80;99.90;;;;;;5073994;28;20372;-69
2022/06/30 07:28:09;;;;;;;4.93;1.77;;;20.70;99.90;;;;;;5074478;28;20035;-69
2022/06/30 07:30:35;;;;;;;5.53;1.23;;;21.50;99.90;;;;;;5073321;28;20036;-69
2022/06/30 07:33:01;;;;;;;5.10;1.70;;;21.60;99.90;;;;;;5076300;28;20415;-70
2022/06/30 07:35:27;;;;;;;2.25;1.10;;;22.40;99.90;;;;;;5074506;28;20060;-69
2022/06/30 07:37:53;;;;;;;2.22;1.15;;;22.70;99.90;;;;;;5075008;28;20033;-69
2022/06/30 07:40:19;;;;;;;2.95;1.20;;;22.80;99.90;;;;;;5074427;28;20063;-68
2022/06/30 07:42:45;;;;;;;7.30;1.30;;;23.00;99.90;;;;;;5075519;28;20040;-69
2022/06/30 07:45:12;;;;;;;10.32;1.15;;;23.20;99.90;;;;;;5074552;28;20043;-69
2022/06/30 07:47:46;;;;;;;7.45;1.45;;;23.50;99.90;;;;;;5074694;28;20519;-69
2022/06/30 07:50:12;;;;;;;1.58;1.20;;;23.70;99.90;;;;;;5075130;28;20037;-69
2022/06/30 07:52:38;;;;;;;5.90;1.77;;;23.60;99.90;;;;;;5070048;28;20542;-72
2022/06/30 07:55:06;;;;;;;7.70;1.13;;;23.80;99.90;;;;;;5055202;28;20052;-70
2022/06/30 07:57:35;;;;;;;5.90;1.20;;;23.80;99.90;;;;;;5052876;28;20044;-70
2022/06/30 08:00:01;;;;;;;10.32;1.67;;;24.00;99.90;;;;;;5053924;28;20040;-70
2022/06/30 08:02:27;;;;;;;1.73;1.10;;;24.00;99.90;;;;;;5052820;28;20533;-71
2022/06/30 08:04:53;;;;;;;5.88;2.05;;;23.90;99.90;;;;;;5069319;28;20068;-75
2022/06/30 08:07:19;;;;;;;4.97;1.10;;;24.10;99.90;;;;;;5070705;28;20059;-73
2022/06/30 08:09:46;;;;;;;3.45;1.40;;;23.90;99.90;;;;;;5070778;28;20402;-74
2022/06/30 08:12:12;;;;;;;4.60;1.40;;;23.00;99.90;;;;;;5073472;28;20033;-70
2022/06/30 08:14:39;;;;;;;5.72;1.38;;;22.70;99.90;;;;;;5073399;28;20048;-65
2022/06/30 08:17:05;;;;;;;6.10;1.27;;;23.30;99.90;;;;;;5072487;28;20032;-63
2022/06/30 08:19:31;;;;;;;7.65;1.55;;;24.30;99.90;;;;;;5071861;28;20036;-65
2022/06/30 08:21:57;;;;;;;5.15;1.13;;;24.40;99.90;;;;;;5071733;28;20047;-64
2022/06/30 08:24:23;;;;;;;3.45;1.13;;;25.00;99.90;;;;;;5070532;28;20070;-64
2022/06/30 08:26:49;;;;;;;2.95;1.23;;;24.50;99.90;;;;;;5071812;28;20037;-64
2022/06/30 08:29:15;;;;;;;4.47;1.25;;;23.70;99.90;;;;;;5070130;28;20080;-66
2022/06/30 08:31:41;;;;;;;2.58;1.33;;;23.70;99.90;;;;;;5069010;28;20155;-65
2022/06/30 08:34:08;;;;;;;4.38;1.33;;;23.70;99.90;;;;;;5071601;28;20040;-64
2022/06/30 08:36:34;;;;;;;3.47;1.30;;;23.90;99.90;;;;;;5071087;28;20503;-63
2022/06/30 08:39:00;;;;;;;5.43;1.40;;;24.40;99.90;;;;;;5052583;28;20041;-64
2022/06/30 08:44:13;;;;;;;2.08;1.00;;;24.60;99.90;;;;;;5071725;28;20460;-64
2022/06/30 08:46:39;;;;;;;6.68;1.30;;;24.60;99.90;;;;;;5070803;28;20097;-63
2022/06/30 08:49:06;;;;;;;2.45;1.65;;;24.40;99.90;;;;;;5070357;28;20534;-62
2022/06/30 08:51:35;;;;;;;4.60;1.27;;;24.60;99.90;;;;;;5070973;28;20032;-66
2022/06/30 08:54:02;;;;;;;4.00;1.00;;;24.80;99.90;;;;;;5071076;28;20037;-64
2022/06/30 08:56:34;;;;;;;3.15;1.42;;;24.80;99.90;;;;;;5073037;28;20040;-72
2022/06/30 08:59:05;;;;;;;4.50;1.50;;;25.20;99.90;;;;;;5070035;28;20040;-68
2022/06/30 09:01:32;;;;;;;2.95;1.48;;;25.20;99.90;;;;;;5069630;28;20036;-68
2022/06/30 09:03:58;;;;;;;3.30;1.27;;;24.70;99.90;;;;;;5068442;28;20454;-68
2022/06/30 09:06:25;;;;;;;4.07;1.35;;;25.20;99.90;;;;;;5070881;28;20040;-68
2022/06/30 09:08:51;;;;;;;2.28;1.33;;;25.80;99.90;;;;;;5070276;28;20402;-68
2022/06/30 09:11:17;;;;;;;6.90;1.52;;;25.70;99.00;;;;;;5070635;28;20051;-68
2022/06/30 09:13:45;;;;;;;2.53;1.10;;;25.70;99.90;;;;;;5070482;28;20040;-68
2022/06/30 09:16:12;;;;;;;11.98;1.60;;;25.90;99.90;;;;;;5069180;28;20071;-70
2022/06/30 09:18:39;;;;;;;6.32;1.70;;;25.80;99.50;;;;;;5070489;28;20525;-70
2022/06/30 09:21:17;;;;;;;5.15;1.27;;;25.70;99.60;;;;;;5069976;28;20079;-70
2022/06/30 09:23:45;;;;;;;3.28;1.17;;;25.20;99.70;;;;;;5070374;28;20518;-69
2022/06/30 09:26:22;;;;;;;3.65;1.40;;;25.70;99.90;;;;;;5070139;28;20090;-69
2022/06/30 09:28:55;;;;;;;5.45;1.30;;;25.90;99.90;;;;;;5074994;28;20033;-70
2022/06/30 09:31:42;;;;;;;6.68;1.52;;;26.20;99.90;;;;;;5073839;28;20491;-70
2022/06/30 09:34:18;;;;;;;3.45;1.45;;;26.20;97.70;;;;;;5074585;28;20546;-71
2022/06/30 09:36:47;;;;;;;4.63;1.50;;;25.60;99.40;;;;;;5074578;28;20518;-70
2022/06/30 09:39:15;;;;;;;5.47;1.60;;;25.40;98.80;;;;;;5074585;28;20563;-71
2022/06/30 09:41:43;;;;;;;3.58;1.52;;;25.60;99.20;;;;;;5074790;28;20483;-71
2022/06/30 09:44:16;;;;;;;4.47;1.60;;;25.40;99.70;;;;;;5074862;28;20042;-71
2022/06/30 09:46:59;;;;;;;6.10;1.55;;;25.50;98.80;;;;;;5075886;28;20040;-71
2022/06/30 09:49:33;;;;;;;3.72;1.67;;;25.40;99.90;;;;;;5076299;28;20036;-70
2022/06/30 09:52:04;;;;;;;4.88;1.27;;;26.20;99.90;;;;;;5073790;28;20112;-70
2022/06/30 09:54:35;;;;;;;4.00;1.52;;;26.00;99.80;;;;;;5075127;28;20289;-70
2022/06/30 09:57:06;;;;;;;5.95;1.58;;;26.10;99.80;;;;;;5075350;28;20151;-70
2022/06/30 09:59:33;;;;;;;4.85;1.48;;;;;;;;;;5073350;28;20060;-68
2022/06/30 10:01:59;;;;;;;2.55;1.27;;;26.10;99.80;;;;;;5075802;28;20495;-70
2022/06/30 10:04:26;;;;;;;4.05;1.30;;;26.30;99.80;;;;;;5074172;28;20044;-70
2022/06/30 10:06:53;;;;;;;4.22;1.85;;;26.10;99.90;;;;;;5073593;28;20036;-69
2022/06/30 10:09:19;;;;;;;4.22;2.00;;;26.80;99.90;;;;;;5075114;28;20046;-71
2022/06/30 10:11:46;;;;;;;5.80;1.60;;;26.30;99.30;;;;;;5074372;28;20040;-71
2022/06/30 10:14:16;;;;;;;4.03;1.98;;;26.30;99.00;;;;;;5072897;28;20147;-70
2022/06/30 10:16:43;;;;;;;4.13;1.65;;;26.40;99.80;;;;;;5073892;28;20163;-70
2022/06/30 10:19:10;;;;;;;6.60;1.70;;;26.80;98.80;;;;;;5074447;28;20045;-70
2022/06/30 10:21:41;;;;;;;5.45;1.88;;;26.80;99.90;;;;;;5073130;28;20036;-69
2022/06/30 10:24:08;;;;;;;5.25;1.40;;;26.90;99.40;;;;;;5074109;28;20036;-69
2022/06/30 10:29:21;;;;;;;3.50;1.25;;;27.10;98.30;;;;;;5076171;28;20486;-70
2022/06/30 10:32:01;;;;;;;7.40;1.63;;;27.00;98.90;;;;;;5073770;28;20036;-71
2022/06/30 10:34:35;;;;;;;;;;;26.10;97.60;;;;;;5056922;28;20055;-70
2022/06/30 10:37:07;;;;;;;9.30;1.40;;;26.30;99.70;;;;;;5053614;28;20359;-70
2022/06/30 10:39:41;;;;;;;9.73;1.80;;;26.40;99.30;;;;;;5052195;28;20033;-70
2022/06/30 10:42:07;;;;;;;5.05;1.70;;;26.10;99.70;;;;;;5052876;28;20093;-70
2022/06/30 10:44:33;;;;;;;4.65;1.20;;;26.60;99.90;;;;;;5053633;28;20488;-71
2022/06/30 10:47:03;;;;;;;3.53;1.33;;;26.70;98.50;;;;;;5053689;28;20067;-70
2022/06/30 10:49:29;;;;;;;9.32;1.90;;;26.60;98.70;;;;;;5053496;28;20095;-71
2022/06/30 10:51:58;;;;;;;3.05;1.80;;;26.50;98.50;;;;;;5052669;28;20033;-69
2022/06/30 10:54:29;;;;;;;9.73;1.80;;;26.40;99.50;;;;;;5051731;28;20040;-70
2022/06/30 10:56:56;;;;;;;8.15;2.22;;;27.00;99.90;;;;;;5053382;28;20048;-71
2022/06/30 10:59:29;;;;;;;13.88;1.90;;;26.80;98.90;;;;;;5053457;28;20040;-68
2022/06/30 11:02:08;;;;;;;8.77;1.52;;;26.80;98.60;;;;;;5053271;28;20037;-70
2022/06/30 11:04:45;;;;;;;5.75;1.95;;;26.70;99.50;;;;;;5053230;28;20467;-70
2022/06/30 11:07:14;;;;;;;11.55;1.88;;;26.90;99.60;;;;;;5051691;28;20041;-70
2022/06/30 11:09:49;;;;;;;4.13;1.83;;;26.90;99.40;;;;;;5053288;28;20120;-70
2022/06/30 11:12:19;;;;;;;9.15;2.00;;;26.90;99.30;;;;;;5053783;28;20037;-70
2022/06/30 11:14:55;;;;;;;3.35;1.90;;;26.90;97.80;;;;;;5053343;28;20129;-70
2022/06/30 11:17:23;;;;;;;5.95;1.67;;;26.90;99.80;;;;;;5055087;28;20075;-70
2022/06/30 11:20:10;;;;;;;3.28;1.70;;;27.60;99.90;;;;;;5053771;28;20047;-70
2022/06/30 11:22:36;;;;;;;7.07;1.88;;;27.70;99.00;;;;;;5052288;28;20056;-70
2022/06/30 11:25:08;;;;;;;4.55;1.60;;;27.30;99.20;;;;;;5053143;28;20488;-70
2022/06/30 11:27:36;;;;;;;5.93;2.08;;;27.40;98.80;;;;;;5053210;28;20033;-70
2022/06/30 11:30:12;;;;;;;4.60;2.08;;;27.60;98.90;;;;;;5053215;28;20096;-70
2022/06/30 11:32:39;;;;;;;8.40;1.95;;;27.70;99.90;;;;;;5061542;28;20044;-69
2022/06/30 11:35:06;;;;;;;3.90;1.80;;;27.50;98.50;;;;;;5072480;28;20048;-70
2022/06/30 11:37:35;;;;;;;5.00;1.75;;;27.20;97.60;;;;;;5072418;28;20094;-70
2022/06/30 11:40:06;;;;;;;5.32;1.55;;;27.30;98.60;;;;;;5071817;28;20040;-69
2022/06/30 11:42:35;;;;;;;7.03;1.85;;;26.80;99.10;;;;;;5072704;28;20052;-70
2022/06/30 11:45:23;;;;;;;4.63;1.70;;;26.40;98.90;;;;;;5071286;28;20059;-71
2022/06/30 11:48:03;;;;;;;6.55;1.70;;;26.40;98.70;;;;;;5073400;28;20449;-72
2022/06/30 11:50:30;;;;;;;3.67;2.30;;;26.20;98.70;;;;;;5072494;28;20044;-71
2022/06/30 11:52:59;;;;;;;2.85;1.35;;;26.50;99.70;;;;;;5072849;28;20123;-72
2022/06/30 11:55:27;;;;;;;4.78;1.80;;;26.50;99.70;;;;;;5070647;28;20542;-70
2022/06/30 11:57:57;;;;;;;5.18;1.63;;;26.20;98.90;;;;;;5072679;28;20499;-72
2022/06/30 12:00:27;;;;;;;2.47;1.20;;;25.80;99.10;;;;;;5070662;28;20048;-72
2022/06/30 12:02:55;;;;;;;3.60;1.35;;;26.00;99.90;;;;;;5072404;28;20040;-71
2022/06/30 12:05:24;;;;;;;3.45;1.30;;;25.60;99.90;;;;;;5072209;28;20048;-72
2022/06/30 12:07:50;;;;;;;3.40;1.10;;;25.40;99.90;;;;;;5071409;28;20051;-71
2022/06/30 12:10:24;;;;;;;5.60;1.30;;;25.20;99.90;;;;;;5070981;28;20044;-72
2022/06/30 12:12:51;;;;;;;15.15;3.42;;;25.10;99.90;;;;;;5071990;28;20454;-72
2022/06/30 12:15:18;;;;;;;5.57;1.73;;;25.20;99.90;;;;;;5070953;28;20052;-71
2022/06/30 12:17:52;;;;;;;10.63;1.70;;;25.50;99.90;;;;;;5073142;28;20449;-72
2022/06/30 12:20:19;;;;;;;18.33;5.05;;;25.90;99.90;;;;;;5074420;28;20492;-72
2022/06/30 12:22:48;;;;;;;606.15;153.40;;;25.90;99.90;;;;;;5073901;28;20040;-72
2022/06/30 12:25:17;;;;;;;5.00;1.63;;;26.20;99.90;;;;;;5064942;28;20507;-71
2022/06/30 12:27:53;;;;;;;3.40;1.27;;;26.20;99.90;;;;;;5070198;28;20123;-72
2022/06/30 12:30:24;;;;;;;4.38;1.30;;;26.00;99.90;;;;;;5071578;28;20055;-72
2022/06/30 12:32:56;;;;;;;5.35;1.27;;;26.00;99.90;;;;;;5072048;28;20036;-72
2022/06/30 12:35:24;;;;;;;5.32;1.05;;;26.10;99.90;;;;;;5072229;28;20048;-72
2022/06/30 12:37:53;;;;;;;3.95;1.35;;;25.40;99.90;;;;;;5072203;28;20514;-71
2022/06/30 12:40:26;;;;;;;6.88;1.30;;;25.80;99.90;;;;;;5071913;28;20036;-71
2022/06/30 12:42:55;;;;;;;6.35;1.35;;;25.30;99.90;;;;;;5070373;28;20071;-71
2022/06/30 12:45:49;;;;;;;7.53;1.50;;;24.80;99.90;;;;;;5073173;28;20072;-71
2022/06/30 12:48:39;;;;;;;6.22;1.48;;;24.30;99.90;;;;;;5072731;28;20400;-71
2022/06/30 12:51:06;;;;;;;4.47;1.20;;;24.00;99.90;;;;;;5066862;28;20037;-71
2022/06/30 12:53:35;;;;;;;2.63;1.27;;;24.10;99.90;;;;;;5073644;28;20120;-70
2022/06/30 12:56:02;;;;;;;5.45;1.50;;;23.80;99.90;;;;;;5073635;28;20403;-71
2022/06/30 12:58:47;;;;;;;2.80;1.40;;;23.50;99.90;;;;;;5073154;28;20526;-71
2022/06/30 13:01:41;;;;;;;6.30;1.65;;;23.40;99.90;;;;;;5072743;28;20045;-71
2022/06/30 13:04:16;;;;;;;3.75;1.40;;;23.40;99.90;;;;;;5071085;28;20067;-71
2022/06/30 13:06:45;;;;;;;8.85;1.60;;;23.00;99.90;;;;;;5053488;28;20068;-69
2022/06/30 13:09:14;;;;;;;2.63;1.30;;;22.60;99.90;;;;;;5053685;28;20126;-70